Time;durP1;ratioP1;P1;durP2;ratioP2;P2;SDS_P1;SDS_P2;PMS_P1;PMS_P2;Temp;Humidity;BMP_temperature;BMP_pressure;BME280_temperature;BME280_humidity;BME280_pressure;Samples;Min_cycle;Max_cycle;Signal;HPM_P1;HPM_P2
2022/04/23 00:03:34;;;;;;;4.88;3.55;;;;;;;;;;10427590;28;20083;-67
2022/04/23 00:08:32;;;;;;;6.53;3.00;;;;;;;;;;10430727;28;20079;-66
2022/04/23 00:13:30;;;;;;;5.80;3.17;;;;;;;;;;10433947;28;20077;-65
2022/04/23 00:18:30;;;;;;;5.90;4.85;;;;;;;;;;10433721;28;20043;-65
2022/04/23 00:23:31;;;;;;;3.85;2.70;;;;;;;;;;10436480;28;20070;-65
2022/04/23 00:28:29;;;;;;;4.93;3.15;;;;;;;;;;10436158;27;20341;-65
2022/04/23 00:33:27;;;;;;;4.90;2.78;;;;;;;;;;10443312;27;20047;-65
2022/04/23 00:38:27;;;;;;;9.73;2.90;;;;;;;;;;10441917;27;20062;-65
2022/04/23 00:43:27;;;;;;;5.75;2.63;;;;;;;;;;10440648;27;20090;-66
2022/04/23 00:48:26;;;;;;;6.85;3.60;;;;;;;;;;10443904;27;20070;-66
2022/04/23 00:53:25;;;;;;;7.32;3.17;;;;;;;;;;10440897;27;20460;-66
2022/04/23 00:58:26;;;;;;;6.47;3.90;;;;;;;;;;10441125;27;20067;-65
2022/04/23 01:03:25;;;;;;;6.13;3.47;;;;;;;;;;10426238;27;20480;-66
2022/04/23 01:08:26;;;;;;;6.35;3.30;;;;;;;;;;10440580;27;20067;-66
2022/04/23 01:13:26;;;;;;;10.38;3.40;;;;;;;;;;10440446;27;20046;-66
2022/04/23 01:18:25;;;;;;;4.55;3.10;;;;;;;;;;10439248;27;20440;-66
2022/04/23 01:23:25;;;;;;;8.55;3.70;;;;;;;;;;10439335;27;20487;-65
2022/04/23 01:28:23;;;;;;;5.85;3.17;;;;;;;;;;10439148;27;20043;-65
2022/04/23 01:33:22;;;;;;;3.78;3.17;;;;;;;;;;10440764;27;20070;-66
2022/04/23 01:38:20;;;;;;;5.57;3.42;;;;;;;;;;10438607;27;20447;-65
2022/04/23 01:43:20;;;;;;;3.45;2.88;;;;;;;;;;10437873;27;20113;-65
2022/04/23 01:48:18;;;;;;;8.77;3.67;;;;;;;;;;10415551;27;20073;-66
2022/04/23 01:53:18;;;;;;;8.75;3.58;;;;;;;;;;10414823;27;20059;-66
2022/04/23 01:58:16;;;;;;;6.57;3.50;;;;;;;;;;10414666;27;20070;-66
2022/04/23 02:03:16;;;;;;;3.10;2.70;;;;;;;;;;10416691;27;20082;-65
2022/04/23 02:08:17;;;;;;;8.85;3.25;;;;;;;;;;10413986;27;20191;-66
2022/04/23 02:13:16;;;;;;;4.65;3.42;;;;;;;;;;10403509;27;20070;-66
2022/04/23 02:18:16;;;;;;;6.82;3.75;;;;;;;;;;10422033;27;20043;-66
2022/04/23 02:23:15;;;;;;;6.63;3.42;;;;;;;;;;10439530;27;20098;-66
2022/04/23 02:28:14;;;;;;;6.63;4.50;;;;;;;;;;10437532;27;20059;-66
2022/04/23 02:33:14;;;;;;;7.43;3.58;;;;;;;;;;10435772;27;20044;-66
2022/04/23 02:38:14;;;;;;;4.25;3.08;;;;;;;;;;10437060;27;20089;-65
2022/04/23 02:43:14;;;;;;;7.85;3.58;;;;;;;;;;10438640;27;20102;-65
2022/04/23 02:48:12;;;;;;;7.88;3.53;;;;;;;;;;10436717;27;20079;-65
2022/04/23 02:53:10;;;;;;;5.95;3.00;;;;;;;;;;10425887;27;20082;-65
2022/04/23 02:58:09;;;;;;;5.22;3.00;;;;;;;;;;10433650;27;20067;-65
2022/04/23 03:03:09;;;;;;;6.10;3.47;;;;;;;;;;10436195;27;20078;-65
2022/04/23 03:08:09;;;;;;;6.10;3.50;;;;;;;;;;10428414;27;20078;-65
2022/04/23 03:13:08;;;;;;;6.38;3.50;;;;;;;;;;10435022;27;20077;-65
2022/04/23 03:18:08;;;;;;;5.40;3.67;;;;;;;;;;10435200;27;20067;-65
2022/04/23 03:23:08;;;;;;;8.35;3.42;;;;;;;;;;10435464;27;20078;-65
2022/04/23 03:28:06;;;;;;;4.38;3.50;;;;;;;;;;10416589;27;20039;-65
2022/04/23 03:33:04;;;;;;;4.45;3.20;;;;;;;;;;10434004;28;20043;-65
2022/04/23 03:38:03;;;;;;;5.10;3.60;;;;;;;;;;10437484;28;20039;-65
2022/04/23 03:43:03;;;;;;;5.82;3.20;;;;;;;;;;10434590;28;20079;-65
2022/04/23 03:48:02;;;;;;;7.03;3.45;;;;;;;;;;10434725;28;20051;-65
2022/04/23 03:53:00;;;;;;;3.05;2.75;;;;;;;;;;10429234;28;20477;-66
2022/04/23 03:57:59;;;;;;;3.97;3.10;;;;;;;;;;10418799;28;20054;-65
2022/04/23 04:02:58;;;;;;;4.40;3.03;;;;;;;;;;10435606;27;20069;-66
2022/04/23 04:07:57;;;;;;;8.00;3.28;;;;;;;;;;10443522;27;20055;-66
2022/04/23 04:12:55;;;;;;;5.22;3.35;;;;;;;;;;10434453;27;20511;-65
2022/04/23 04:17:55;;;;;;;5.38;4.30;;;;;;;;;;10444627;27;20487;-65
2022/04/23 04:22:55;;;;;;;10.93;5.32;;;;;;;;;;10436303;27;20432;-66
2022/04/23 04:27:54;;;;;;;6.47;4.45;;;;;;;;;;10443406;27;20075;-65
2022/04/23 04:32:52;;;;;;;8.07;4.18;;;;;;;;;;10433724;27;20083;-65
2022/04/23 04:37:51;;;;;;;11.80;6.72;;;;;;;;;;10436238;27;20067;-65
2022/04/23 04:42:50;;;;;;;9.13;4.78;;;;;;;;;;10395607;27;20083;-64
2022/04/23 04:47:49;;;;;;;5.90;4.07;;;;;;;;;;10423703;27;20168;-65
2022/04/23 04:52:47;;;;;;;9.27;5.50;;;;;;;;;;10427348;27;20452;-65
2022/04/23 04:57:45;;;;;;;8.07;4.30;;;;;;;;;;10441705;27;20070;-65
2022/04/23 05:02:45;;;;;;;5.97;4.90;;;;;;;;;;10437017;27;20483;-65
2022/04/23 05:07:44;;;;;;;9.02;6.13;;;;;;;;;;10433560;27;20058;-65
2022/04/23 05:12:42;;;;;;;13.57;7.15;;;;;;;;;;10426361;27;20084;-65
2022/04/23 05:17:41;;;;;;;12.50;6.93;;;;;;;;;;10423438;27;20097;-64
2022/04/23 05:22:40;;;;;;;9.65;6.90;;;;;;;;;;10425230;27;20578;-64
2022/04/23 05:27:39;;;;;;;6.43;5.18;;;;;;;;;;10432265;27;20067;-66
2022/04/23 05:32:37;;;;;;;21.02;10.60;;;;;;;;;;10434733;27;20070;-66
2022/04/23 05:37:43;;;;;;;13.95;9.07;;;;;;;;;;10435044;27;20067;-67
2022/04/23 05:42:41;;;;;;;8.48;6.32;;;;;;;;;;10407328;27;20082;-66
2022/04/23 05:47:42;;;;;;;10.90;6.80;;;;;;;;;;10425924;27;20067;-67
2022/04/23 05:52:41;;;;;;;14.63;7.18;;;;;;;;;;10426009;27;20070;-67
2022/04/23 05:57:40;;;;;;;12.07;7.25;;;;;;;;;;10428597;27;20070;-67
2022/04/23 06:02:40;;;;;;;12.52;6.72;;;;;;;;;;10424277;27;20481;-67
2022/04/23 06:07:38;;;;;;;8.75;5.53;;;;;;;;;;10430460;27;20058;-67
2022/04/23 06:12:37;;;;;;;74.10;56.72;;;;;;;;;;10428247;27;20062;-68
2022/04/23 06:17:36;;;;;;;25.98;21.02;;;;;;;;;;10432770;27;20071;-65
2022/04/23 06:22:35;;;;;;;11.60;7.40;;;;;;;;;;10415798;27;20169;-65
2022/04/23 06:27:33;;;;;;;19.75;12.65;;;;;;;;;;10432604;27;20074;-65
2022/04/23 06:32:31;;;;;;;11.65;8.32;;;;;;;;;;10436265;27;20077;-65
2022/04/23 06:37:32;;;;;;;16.42;11.90;;;;;;;;;;10429642;27;20101;-65
2022/04/23 06:42:30;;;;;;;10.52;6.90;;;;;;;;;;10428020;27;20074;-65
2022/04/23 06:47:28;;;;;;;15.10;9.43;;;;;;;;;;10412344;27;20152;-65
2022/04/23 06:52:27;;;;;;;15.20;10.05;;;;;;;;;;10434479;27;20069;-64
2022/04/23 06:57:26;;;;;;;13.00;7.40;;;;;;;;;;10436126;27;20067;-64
2022/04/23 07:02:24;;;;;;;15.43;8.38;;;;;;;;;;10428731;27;20631;-64
2022/04/23 07:07:23;;;;;;;11.80;7.95;;;;;;;;;;10427467;27;20502;-63
2022/04/23 07:12:21;;;;;;;8.73;6.75;;;;;;;;;;10420062;27;20067;-63
2022/04/23 07:17:25;;;;;;;10.25;7.63;;;;;;;;;;10432256;27;20069;-64
2022/04/23 07:22:23;;;;;;;13.40;6.47;;;;;;;;;;10434474;27;20525;-64
2022/04/23 07:27:22;;;;;;;8.85;6.03;;;;;;;;;;10432099;27;20074;-63
2022/04/23 07:32:21;;;;;;;12.43;6.70;;;;;;;;;;10429393;27;20089;-64
2022/04/23 07:37:30;;;;;;;11.95;7.93;;;;;;;;;;10435732;27;20500;-63
2022/04/23 07:42:29;;;;;;;12.32;8.00;;;;;;;;;;10444620;27;20086;-64
2022/04/23 07:47:28;;;;;;;9.10;7.15;;;;;;;;;;10444435;27;20063;-64
2022/04/23 07:52:28;;;;;;;11.43;7.57;;;;;;;;;;10443321;27;20588;-64
2022/04/23 07:57:26;;;;;;;8.65;7.60;;;;;;;;;;10443840;27;20067;-64
2022/04/23 08:02:24;;;;;;;8.85;7.25;;;;;;;;;;10444584;27;20063;-64
2022/04/23 08:07:23;;;;;;;15.30;7.38;;;;;;;;;;10444827;27;20063;-64
2022/04/23 08:12:23;;;;;;;13.40;12.00;;;;;;;;;;10425645;27;20058;-64
2022/04/23 08:17:21;;;;;;;8.88;6.78;;;;;;;;;;10440323;27;20082;-64
2022/04/23 08:22:19;;;;;;;11.60;8.05;;;;;;;;;;10441752;27;20067;-64
2022/04/23 08:27:18;;;;;;;12.05;6.28;;;;;;;;;;10442769;27;20071;-63
2022/04/23 08:32:17;;;;;;;7.28;5.18;;;;;;;;;;10441992;27;20044;-63
2022/04/23 08:37:16;;;;;;;15.40;8.57;;;;;;;;;;10442515;27;20103;-64
2022/04/23 08:42:16;;;;;;;9.85;6.40;;;;;;;;;;10433059;27;20075;-65
2022/04/23 08:47:16;;;;;;;9.00;5.63;;;;;;;;;;10440931;27;20077;-65
2022/04/23 08:52:18;;;;;;;7.70;6.55;;;;;;;;;;10433384;27;20079;-64
2022/04/23 08:57:16;;;;;;;12.90;6.65;;;;;;;;;;10441575;27;20039;-64
2022/04/23 09:02:14;;;;;;;22.80;6.03;;;;;;;;;;10423373;27;20062;-64
2022/04/23 09:07:21;;;;;;;7.43;5.20;;;;;;;;;;10441059;27;20059;-65
2022/04/23 09:12:24;;;;;;;15.15;5.07;;;;;;;;;;10438298;27;20533;-63
2022/04/23 09:28:15;;;;;;;13.43;6.75;;;;;;;;;;10426913;27;20484;-65
2022/04/23 09:33:14;;;;;;;10.55;3.88;;;;;;;;;;10438471;27;20501;-65
2022/04/23 09:38:18;;;;;;;7.82;3.85;;;;;;;;;;10441540;27;20043;-65
2022/04/23 09:43:16;;;;;;;7.75;4.43;;;;;;;;;;10413506;27;20472;-65
2022/04/23 09:48:18;;;;;;;9.98;4.70;;;;;;;;;;10436373;27;20082;-63
2022/04/23 09:53:19;;;;;;;6.28;4.95;;;;;;;;;;10412684;27;20066;-65
2022/04/23 09:58:17;;;;;;;7.82;5.00;;;;;;;;;;10415876;27;20090;-64
2022/04/23 10:03:15;;;;;;;4.50;2.97;;;;;;;;;;10416033;27;20066;-64
2022/04/23 10:08:15;;;;;;;4.03;3.00;;;;;;;;;;10440345;27;20381;-63
2022/04/23 10:13:17;;;;;;;9.23;4.13;;;;;;;;;;10432376;27;20071;-63
2022/04/23 10:18:15;;;;;;;5.47;3.17;;;;;;;;;;10415127;27;20090;-62
2022/04/23 10:23:17;;;;;;;4.90;3.72;;;;;;;;;;10440035;27;20043;-62
2022/04/23 10:28:19;;;;;;;6.50;4.25;;;;;;;;;;10414429;27;20066;-63
2022/04/23 10:33:25;;;;;;;3.92;3.22;;;;;;;;;;10415931;27;20051;-63
2022/04/23 10:38:23;;;;;;;4.00;2.28;;;;;;;;;;10398581;28;20051;-64
2022/04/23 10:43:24;;;;;;;7.38;3.10;;;;;;;;;;10398184;28;20075;-64
2022/04/23 10:48:26;;;;;;;6.45;2.10;;;;;;;;;;10397514;28;20106;-64
2022/04/23 10:53:27;;;;;;;7.32;2.63;;;;;;;;;;10416217;27;20074;-62
2022/04/23 10:58:32;;;;;;;3.42;3.13;;;;;;;;;;10420441;27;20048;-62
2022/04/23 11:03:31;;;;;;;3.92;2.03;;;;;;;;;;10438985;27;20047;-64
2022/04/23 11:13:49;;;;;;;4.20;2.95;;;;;;;;;;10424652;27;20078;-64
2022/04/23 11:18:47;;;;;;;5.78;2.45;;;;;;;;;;10437514;27;20439;-64
2022/04/23 11:23:47;;;;;;;3.65;2.28;;;;;;;;;;10437692;27;20503;-63
2022/04/23 11:28:45;;;;;;;5.07;2.45;;;;;;;;;;10437141;27;20089;-64
2022/04/23 11:33:55;;;;;;;2.88;1.50;;;;;;;;;;10436891;27;20062;-60
2022/04/23 11:38:53;;;;;;;2.50;1.70;;;;;;;;;;10434946;28;20046;-61
2022/04/23 11:43:52;;;;;;;4.82;2.70;;;;;;;;;;10429063;28;20079;-59
2022/04/23 11:48:51;;;;;;;4.90;2.75;;;;;;;;;;10433842;28;20074;-59
2022/04/23 11:53:55;;;;;;;5.32;2.03;;;;;;;;;;10435873;28;20071;-62
2022/04/23 11:58:54;;;;;;;2.75;1.70;;;;;;;;;;10437879;28;20094;-60
2022/04/23 12:03:53;;;;;;;7.50;4.57;;;;;;;;;;10411365;28;20070;-60
2022/04/23 12:08:52;;;;;;;5.25;2.50;;;;;;;;;;10436750;28;20117;-61
2022/04/23 12:13:52;;;;;;;4.88;2.67;;;;;;;;;;10436919;28;20062;-60
2022/04/23 12:18:58;;;;;;;5.15;2.00;;;;;;;;;;10435746;28;20082;-61
2022/04/23 12:23:56;;;;;;;3.33;2.08;;;;;;;;;;10418692;27;20071;-60
2022/04/23 12:44:51;;;;;;;2.45;2.25;;;;;;;;;;10443340;27;20086;-59
2022/04/23 12:49:50;;;;;;;4.85;2.08;;;;;;;;;;10443907;27;20074;-60
2022/04/23 12:55:07;;;;;;;1.73;1.25;;;;;;;;;;10443052;27;20051;-60
2022/04/23 13:00:08;;;;;;;2.55;1.70;;;;;;;;;;10443737;27;20089;-60
2022/04/23 13:05:08;;;;;;;4.05;1.77;;;;;;;;;;10442702;27;20095;-60
2022/04/23 13:10:06;;;;;;;2.70;1.65;;;;;;;;;;10442896;27;20083;-60
2022/04/23 13:15:05;;;;;;;4.00;3.08;;;;;;;;;;10442717;27;20081;-60
2022/04/23 13:20:05;;;;;;;3.85;1.90;;;;;;;;;;10442822;27;20067;-59
2022/04/23 13:25:04;;;;;;;3.38;2.22;;;;;;;;;;10442497;27;20500;-59
2022/04/23 13:30:05;;;;;;;5.82;4.30;;;;;;;;;;10442423;27;20462;-60
2022/04/23 13:35:06;;;;;;;2.90;2.20;;;;;;;;;;10441123;27;20039;-59
2022/04/23 13:40:05;;;;;;;3.03;2.50;;;;;;;;;;10441485;27;20067;-60
2022/04/23 13:45:05;;;;;;;2.53;2.05;;;;;;;;;;10441023;27;20120;-60
2022/04/23 13:50:06;;;;;;;2.25;1.88;;;;;;;;;;10441668;27;20085;-60
2022/04/23 13:55:05;;;;;;;2.70;1.73;;;;;;;;;;10441025;27;20079;-60
2022/04/23 14:00:04;;;;;;;4.93;3.00;;;;;;;;;;10437822;27;20078;-60
2022/04/23 14:10:28;;;;;;;3.58;1.83;;;;;;;;;;10439139;27;20062;-59
2022/04/23 14:15:26;;;;;;;7.22;3.55;;;;;;;;;;10437502;27;20070;-59
2022/04/23 14:20:26;;;;;;;11.10;8.65;;;;;;;;;;10426500;27;20067;-59
2022/04/23 14:25:24;;;;;;;4.32;3.90;;;;;;;;;;10433649;27;20063;-59
2022/04/23 14:30:22;;;;;;;4.07;2.15;;;;;;;;;;10439347;27;20074;-59
2022/04/23 14:35:21;;;;;;;5.07;3.20;;;;;;;;;;10433763;27;20491;-60
2022/04/23 14:40:21;;;;;;;8.23;3.83;;;;;;;;;;10436293;27;20063;-59
2022/04/23 14:45:19;;;;;;;5.18;3.92;;;;;;;;;;10429129;27;20305;-60
2022/04/23 14:50:18;;;;;;;4.90;3.63;;;;;;;;;;10421329;27;20141;-60
2022/04/23 14:55:16;;;;;;;4.10;2.67;;;;;;;;;;10432766;27;20059;-60
2022/04/23 15:00:16;;;;;;;4.97;4.32;;;;;;;;;;10439323;27;20094;-59
2022/04/23 15:05:15;;;;;;;5.40;3.35;;;;;;;;;;10430975;27;20079;-59
2022/04/23 15:10:13;;;;;;;3.47;2.58;;;;;;;;;;10430127;27;20085;-60
2022/04/23 15:15:12;;;;;;;7.20;4.32;;;;;;;;;;10415512;27;20067;-60
2022/04/23 15:20:13;;;;;;;6.07;3.65;;;;;;;;;;10434994;27;20074;-60
2022/04/23 15:25:12;;;;;;;5.55;3.55;;;;;;;;;;10422794;27;20063;-60
2022/04/23 15:30:10;;;;;;;7.03;4.45;;;;;;;;;;10429296;27;20066;-60
2022/04/23 15:35:10;;;;;;;14.98;9.55;;;;;;;;;;10425658;27;20071;-61
2022/04/23 15:40:10;;;;;;;25.75;16.98;;;;;;;;;;10428735;28;20055;-61
2022/04/23 15:45:09;;;;;;;12.85;8.15;;;;;;;;;;10432586;28;20082;-59
2022/04/23 15:50:07;;;;;;;4.10;2.92;;;;;;;;;;10437098;28;20082;-59
2022/04/23 15:55:06;;;;;;;6.45;2.13;;;;;;;;;;10431503;28;20069;-59
2022/04/23 16:00:07;;;;;;;3.95;1.83;;;;;;;;;;10434100;27;20067;-60
2022/04/23 16:05:11;;;;;;;6.72;2.83;;;;;;;;;;10425643;27;20528;-59
2022/04/23 16:10:09;;;;;;;6.22;2.20;;;;;;;;;;10431657;27;20105;-59
2022/04/23 16:15:09;;;;;;;2.47;1.55;;;;;;;;;;10433197;27;20059;-60
2022/04/23 16:20:30;;;;;;;2.70;2.08;;;;;;;;;;10410750;27;20059;-59
2022/04/23 16:25:29;;;;;;;7.88;2.55;;;;;;;;;;10441180;27;20081;-60
2022/04/23 16:30:29;;;;;;;3.47;2.35;;;;;;;;;;10443823;27;20078;-60
2022/04/23 16:35:27;;;;;;;2.30;2.10;;;;;;;;;;10433498;27;20074;-59
2022/04/23 16:51:10;;;;;;;7.60;5.03;;;;;;;;;;10443322;27;20083;-61
2022/04/23 16:56:12;;;;;;;29.75;19.85;;;;;;;;;;10437532;27;20074;-61
2022/04/23 17:01:11;;;;;;;11.00;7.13;;;;;;;;;;10435714;27;20074;-61
2022/04/23 17:06:10;;;;;;;5.05;2.70;;;;;;;;;;10443672;27;20089;-61
2022/04/23 17:11:09;;;;;;;5.43;3.42;;;;;;;;;;10443508;27;20108;-60
2022/04/23 17:16:07;;;;;;;6.75;3.40;;;;;;;;;;10442011;27;20428;-58
2022/04/23 17:21:07;;;;;;;10.55;8.18;;;;;;;;;;10442124;27;20077;-59
2022/04/23 17:26:05;;;;;;;11.82;9.57;;;;;;;;;;10441201;27;20082;-59
2022/04/23 17:31:03;;;;;;;16.35;11.50;;;;;;;;;;10442590;27;20066;-59
2022/04/23 17:36:01;;;;;;;13.35;12.05;;;;;;;;;;10441628;27;20509;-60
2022/04/23 17:41:02;;;;;;;15.63;11.45;;;;;;;;;;10441569;27;20515;-60
2022/04/23 17:46:00;;;;;;;12.90;11.60;;;;;;;;;;10440601;27;20081;-62
2022/04/23 17:50:58;;;;;;;10.48;8.68;;;;;;;;;;10441279;27;20105;-59
2022/04/23 17:56:03;;;;;;;11.88;10.45;;;;;;;;;;10422098;27;20483;-60
2022/04/23 18:11:35;;;;;;;12.57;9.38;;;;;;;;;;10438926;27;20079;-60
2022/04/23 18:16:34;;;;;;;11.13;8.45;;;;;;;;;;10427432;27;20050;-60
2022/04/23 18:21:32;;;;;;;9.82;5.75;;;;;;;;;;10439350;27;20051;-60
2022/04/23 18:26:30;;;;;;;5.63;3.03;;;;;;;;;;10439223;27;20078;-60
2022/04/23 18:31:30;;;;;;;4.25;2.42;;;;;;;;;;10438825;27;20134;-60
2022/04/23 18:36:34;;;;;;;4.40;3.00;;;;;;;;;;10430609;27;20175;-60
2022/04/23 18:41:33;;;;;;;20.80;15.18;;;;;;;;;;10425777;27;22097;-60
2022/04/23 18:46:32;;;;;;;5.65;4.10;;;;;;;;;;10399440;27;20111;-60
2022/04/23 18:51:31;;;;;;;6.68;3.55;;;;;;;;;;10426929;27;20075;-60
2022/04/23 18:56:29;;;;;;;6.35;3.13;;;;;;;;;;10418991;27;20078;-60
2022/04/23 19:01:30;;;;;;;5.80;2.83;;;;;;;;;;10419010;27;20071;-59
2022/04/23 19:06:30;;;;;;;4.40;2.72;;;;;;;;;;10418298;27;20075;-58
2022/04/23 19:11:28;;;;;;;4.15;2.45;;;;;;;;;;10420569;27;20079;-59
2022/04/23 19:16:27;;;;;;;2.85;1.67;;;;;;;;;;10418344;27;20444;-58
2022/04/23 19:31:58;;;;;;;4.55;2.15;;;;;;;;;;10419351;27;20059;-58
2022/04/23 19:36:57;;;;;;;5.75;2.63;;;;;;;;;;10412971;27;20078;-58
2022/04/23 19:41:56;;;;;;;3.78;2.33;;;;;;;;;;10414351;28;20071;-58
2022/04/23 19:46:55;;;;;;;3.50;1.90;;;;;;;;;;10420959;28;20064;-58
2022/04/23 19:51:59;;;;;;;5.57;2.60;;;;;;;;;;10420366;28;20063;-58
2022/04/23 19:56:59;;;;;;;5.30;2.67;;;;;;;;;;10426193;27;20051;-58
2022/04/23 20:01:57;;;;;;;5.70;2.90;;;;;;;;;;10416759;28;20737;-58
2022/04/23 20:06:56;;;;;;;4.82;2.38;;;;;;;;;;10426824;28;20078;-58
2022/04/23 20:11:54;;;;;;;2.78;2.10;;;;;;;;;;10430585;28;20082;-58
2022/04/23 20:16:54;;;;;;;3.47;1.70;;;;;;;;;;10424341;28;20078;-59
2022/04/23 20:21:52;;;;;;;12.13;8.35;;;;;;;;;;10434245;28;20059;-59
2022/04/23 20:26:50;;;;;;;4.30;2.00;;;;;;;;;;10416186;28;20066;-59
2022/04/23 20:31:49;;;;;;;5.53;3.40;;;;;;;;;;10424136;28;20071;-58
2022/04/23 20:42:05;;;;;;;6.00;3.35;;;;;;;;;;10431841;28;20171;-59
2022/04/23 20:47:04;;;;;;;10.00;2.38;;;;;;;;;;10430337;27;20492;-59
2022/04/23 20:53:10;;;;;;;5.18;1.80;;;;;;;;;;10437084;27;20074;-59
2022/04/23 20:57:22;;;;;;;4.32;2.65;;;;;;;;;;10439677;27;20078;-58
2022/04/23 21:02:20;;;;;;;7.00;3.05;;;;;;;;;;10442150;27;20082;-58
2022/04/23 21:07:20;;;;;;;2.42;1.92;;;;;;;;;;10439161;27;20499;-58
2022/04/23 21:12:19;;;;;;;4.18;1.98;;;;;;;;;;10443447;27;20456;-58
2022/04/23 21:17:17;;;;;;;3.53;1.63;;;;;;;;;;10442899;27;20039;-58
2022/04/23 21:22:15;;;;;;;3.08;2.03;;;;;;;;;;10442475;27;20447;-59
2022/04/23 21:27:15;;;;;;;3.90;2.53;;;;;;;;;;10431851;27;20062;-59
2022/04/23 21:32:15;;;;;;;2.75;1.75;;;;;;;;;;10430089;27;20071;-58
2022/04/23 21:37:14;;;;;;;3.00;1.77;;;;;;;;;;10428591;27;20083;-59
2022/04/23 21:47:30;;;;;;;3.03;1.80;;;;;;;;;;10432469;27;20055;-59
2022/04/23 21:52:28;;;;;;;1.88;1.60;;;;;;;;;;10441432;27;20491;-59
2022/04/23 21:57:27;;;;;;;3.35;1.75;;;;;;;;;;10438699;27;20065;-59
2022/04/23 22:02:25;;;;;;;2.85;1.85;;;;;;;;;;10440285;27;20069;-58
2022/04/23 22:07:25;;;;;;;3.83;1.75;;;;;;;;;;10439704;27;20071;-59
2022/04/23 22:12:23;;;;;;;2.22;1.77;;;;;;;;;;10440439;27;20074;-59
2022/04/23 22:17:21;;;;;;;3.58;1.75;;;;;;;;;;10435246;27;20047;-59
2022/04/23 22:22:20;;;;;;;2.22;1.42;;;;;;;;;;10440542;27;20043;-59
2022/04/23 22:27:20;;;;;;;3.13;2.03;;;;;;;;;;10440454;27;20066;-58
2022/04/23 22:32:18;;;;;;;6.97;2.05;;;;;;;;;;10439402;27;20074;-59
2022/04/23 22:37:17;;;;;;;5.55;1.90;;;;;;;;;;10439113;27;20051;-60
2022/04/23 22:42:18;;;;;;;4.05;1.70;;;;;;;;;;10439952;27;20088;-59
2022/04/23 22:47:17;;;;;;;4.63;1.88;;;;;;;;;;10439505;27;20067;-60
2022/04/23 22:52:16;;;;;;;4.00;2.25;;;;;;;;;;10413379;27;20074;-59
2022/04/23 22:57:14;;;;;;;1.95;1.70;;;;;;;;;;10429575;27;20066;-59
2022/04/23 23:02:12;;;;;;;3.45;1.95;;;;;;;;;;10430737;27;20093;-59
2022/04/23 23:07:12;;;;;;;4.90;1.88;;;;;;;;;;10438674;27;20644;-58
2022/04/23 23:12:11;;;;;;;11.18;2.45;;;;;;;;;;10437755;27;20070;-59
2022/04/23 23:17:09;;;;;;;5.68;2.10;;;;;;;;;;10437835;27;20097;-59
2022/04/23 23:22:09;;;;;;;3.60;1.80;;;;;;;;;;10438229;27;20476;-60
2022/04/23 23:27:09;;;;;;;2.35;2.15;;;;;;;;;;10435075;27;20059;-60
2022/04/23 23:32:10;;;;;;;2.35;2.15;;;;;;;;;;10437219;27;20063;-59
2022/04/23 23:37:10;;;;;;;5.57;1.90;;;;;;;;;;10437079;27;20067;-59
2022/04/23 23:42:10;;;;;;;2.67;2.08;;;;;;;;;;10437035;27;20530;-58
2022/04/23 23:47:08;;;;;;;3.60;2.25;;;;;;;;;;10436946;28;20086;-59
2022/04/23 23:52:07;;;;;;;4.10;2.20;;;;;;;;;;10437093;28;20075;-60
2022/04/23 23:57:05;;;;;;;5.20;2.38;;;;;;;;;;10436885;28;20078;-58
